createdAt,value
2018-12-21T00:02:03.131Z,6.20
2018-12-21T00:04:45.059Z,6.20
2018-12-21T00:07:27.693Z,6.20
2018-12-21T00:10:09.894Z,6.30
2018-12-21T00:12:53.194Z,6.30
2018-12-21T00:15:35.510Z,6.30
2018-12-21T00:18:18.390Z,6.40
2018-12-21T00:21:01.130Z,6.50
2018-12-21T00:23:43.315Z,6.50
2018-12-21T00:26:25.818Z,6.60
2018-12-21T00:29:08.431Z,6.60
2018-12-21T00:31:55.919Z,6.60
2018-12-21T00:34:43.102Z,6.70
2018-12-21T00:37:30.429Z,6.70
2018-12-21T00:40:18.332Z,6.80
2018-12-21T00:43:05.475Z,6.70
2018-12-21T00:45:50.859Z,6.70
2018-12-21T00:48:33.268Z,6.80
2018-12-21T00:51:15.521Z,6.80
2018-12-21T00:53:57.419Z,6.80
2018-12-21T00:56:39.349Z,6.80
2018-12-21T00:59:21.474Z,6.90
2018-12-21T01:02:05.339Z,6.90
2018-12-21T01:04:47.783Z,6.90
2018-12-21T01:07:29.490Z,6.90
2018-12-21T01:10:12.863Z,6.90
2018-12-21T01:12:56.408Z,6.90
2018-12-21T01:15:38.638Z,6.80
2018-12-21T01:18:21.019Z,6.80
2018-12-21T01:21:03.639Z,6.80
2018-12-21T01:23:46.185Z,6.80
2018-12-21T01:26:28.107Z,6.80
2018-12-21T01:29:10.420Z,6.70
2018-12-21T01:31:53.375Z,6.70
2018-12-21T01:34:35.681Z,6.70
2018-12-21T01:37:17.504Z,6.70
2018-12-21T01:39:59.914Z,6.70
2018-12-21T01:42:41.777Z,6.80
2018-12-21T01:45:24.115Z,6.80
2018-12-21T01:48:06.860Z,6.90
2018-12-21T01:50:49.577Z,6.90
2018-12-21T01:53:31.539Z,7.00
2018-12-21T01:56:13.990Z,6.90
2018-12-21T01:58:56.268Z,6.90
2018-12-21T02:01:38.167Z,6.90
2018-12-21T02:04:20.004Z,7.00
2018-12-21T02:07:02.304Z,6.90
2018-12-21T02:09:44.246Z,7.00
2018-12-21T02:12:26.447Z,6.90
2018-12-21T02:15:09.366Z,6.80
2018-12-21T02:17:51.738Z,6.80
2018-12-21T02:20:34.439Z,6.80
2018-12-21T02:23:17.173Z,6.90
2018-12-21T02:25:59.172Z,6.90
2018-12-21T02:28:42.530Z,6.90
2018-12-21T02:31:24.925Z,6.90
2018-12-21T02:34:06.992Z,6.90
2018-12-21T02:36:49.305Z,6.90
2018-12-21T02:39:31.314Z,6.90
2018-12-21T02:42:13.453Z,6.80
2018-12-21T02:44:55.200Z,5.20
2018-12-21T02:47:38.166Z,6.80
2018-12-21T02:50:20.283Z,6.90
2018-12-21T02:53:02.397Z,6.80
2018-12-21T02:55:44.904Z,6.70
2018-12-21T02:58:27.148Z,6.70
2018-12-21T03:01:09.172Z,6.70
2018-12-21T03:03:51.310Z,6.70
2018-12-21T03:06:33.942Z,6.70
2018-12-21T03:09:15.760Z,6.70
2018-12-21T03:11:58.674Z,6.70
2018-12-21T03:14:41.164Z,6.60
2018-12-21T03:17:23.269Z,6.60
2018-12-21T03:20:06.680Z,6.50
2018-12-21T03:22:48.990Z,6.50
2018-12-21T03:25:31.296Z,6.50
2018-12-21T03:28:13.527Z,6.50
2018-12-21T03:30:55.385Z,6.50
2018-12-21T03:33:37.339Z,6.50
2018-12-21T03:36:19.645Z,6.40
2018-12-21T03:39:01.751Z,6.40
2018-12-21T03:41:43.920Z,6.30
2018-12-21T03:44:26.599Z,6.30
2018-12-21T03:47:09.091Z,6.30
2018-12-21T03:49:51.098Z,6.30
2018-12-21T03:52:33.455Z,6.30
2018-12-21T03:55:15.803Z,6.30
2018-12-21T03:57:57.558Z,6.30
2018-12-21T04:00:39.698Z,6.30
2018-12-21T04:03:22.137Z,6.40
2018-12-21T04:06:03.855Z,6.50
2018-12-21T04:08:45.567Z,6.50
2018-12-21T04:11:27.370Z,6.50
2018-12-21T04:14:09.111Z,6.50
2018-12-21T04:16:51.261Z,6.50
2018-12-21T04:19:33.442Z,6.40
2018-12-21T04:22:15.666Z,6.50
2018-12-21T04:24:58.031Z,6.50
2018-12-21T04:27:40.176Z,6.50
2018-12-21T04:30:22.303Z,6.40
2018-12-21T04:33:04.129Z,6.40
2018-12-21T04:35:47.005Z,6.30
2018-12-21T04:38:28.896Z,6.30
2018-12-21T04:41:10.394Z,6.30
2018-12-21T04:43:53.380Z,6.40
2018-12-21T04:46:35.962Z,6.40
2018-12-21T04:49:18.231Z,6.40
2018-12-21T04:52:00.590Z,6.50
2018-12-21T04:54:42.894Z,6.50
2018-12-21T04:57:24.892Z,6.50
2018-12-21T05:00:07.692Z,6.40
2018-12-21T05:02:50.142Z,6.40
2018-12-21T05:05:33.185Z,6.40
2018-12-21T05:08:16.105Z,6.40
2018-12-21T05:10:58.381Z,6.40
2018-12-21T05:13:40.433Z,6.40
2018-12-21T05:16:22.500Z,6.50
2018-12-21T05:19:04.711Z,6.50
2018-12-21T05:21:47.305Z,6.50
2018-12-21T05:24:29.475Z,6.50
2018-12-21T05:27:11.631Z,6.50
2018-12-21T05:29:53.621Z,6.60
2018-12-21T05:32:35.376Z,6.60
2018-12-21T05:35:17.659Z,6.70
2018-12-21T05:37:59.764Z,6.70
2018-12-21T05:40:41.839Z,6.70
2018-12-21T05:43:24.013Z,6.60
2018-12-21T05:46:06.164Z,6.60
2018-12-21T05:48:48.274Z,6.60
2018-12-21T05:51:30.071Z,6.60
2018-12-21T05:54:12.689Z,6.50
2018-12-21T05:56:55.337Z,6.50
2018-12-21T05:59:37.203Z,6.50
2018-12-21T06:02:19.334Z,6.60
2018-12-21T06:05:01.125Z,6.60
2018-12-21T06:07:43.332Z,6.50
2018-12-21T06:10:25.278Z,6.60
2018-12-21T06:13:07.622Z,6.60
2018-12-21T06:15:49.854Z,6.50
2018-12-21T06:18:31.767Z,6.50
2018-12-21T06:21:13.753Z,6.50
2018-12-21T06:23:55.690Z,6.50
2018-12-21T06:26:37.944Z,6.50
2018-12-21T06:29:20.426Z,6.50
2018-12-21T06:32:02.625Z,6.50
2018-12-21T06:34:44.451Z,6.50
2018-12-21T06:37:26.368Z,6.50
2018-12-21T06:40:08.979Z,6.50
2018-12-21T06:42:51.136Z,6.50
2018-12-21T06:45:33.845Z,6.50
2018-12-21T06:48:16.089Z,6.50
2018-12-21T06:50:58.153Z,6.50
2018-12-21T06:53:40.792Z,6.50
2018-12-21T06:56:22.997Z,6.60
2018-12-21T06:59:06.271Z,6.60
2018-12-21T07:01:48.806Z,6.60
2018-12-21T07:04:31.258Z,6.70
2018-12-21T07:07:13.290Z,6.70
2018-12-21T07:09:55.435Z,6.70
2018-12-21T07:12:37.942Z,6.80
2018-12-21T07:15:20.244Z,6.80
2018-12-21T07:18:02.529Z,6.80
2018-12-21T07:20:52.032Z,6.80
2018-12-21T07:23:34.507Z,6.80
2018-12-21T07:26:16.767Z,6.80
2018-12-21T07:28:59.343Z,6.90
2018-12-21T07:31:42.301Z,6.90
2018-12-21T07:34:25.993Z,6.90
2018-12-21T07:37:09.201Z,6.90
2018-12-21T07:39:51.842Z,7.00
2018-12-21T07:42:34.219Z,7.00
2018-12-21T07:45:16.464Z,7.00
2018-12-21T07:47:58.414Z,7.00
2018-12-21T07:50:40.900Z,7.00
2018-12-21T07:53:23.000Z,7.00
2018-12-21T07:56:05.616Z,7.10
2018-12-21T07:58:47.410Z,7.10
2018-12-21T08:01:29.563Z,7.10
2018-12-21T08:04:11.612Z,7.10
2018-12-21T08:06:53.502Z,7.10
2018-12-21T08:09:36.476Z,7.10
2018-12-21T08:12:18.895Z,7.20
2018-12-21T08:15:01.395Z,7.20
2018-12-21T08:17:43.395Z,7.30
2018-12-21T08:20:25.558Z,7.40
2018-12-21T08:23:07.808Z,7.50
2018-12-21T08:25:50.378Z,7.40
2018-12-21T08:28:32.551Z,7.40
2018-12-21T08:31:14.920Z,7.50
2018-12-21T08:33:57.045Z,7.50
2018-12-21T08:36:39.455Z,7.70
2018-12-21T08:39:22.009Z,7.70
2018-12-21T08:42:04.132Z,6.00
2018-12-21T08:44:45.932Z,7.70
2018-12-21T08:47:27.914Z,7.70
2018-12-21T08:50:11.738Z,7.70
2018-12-21T08:52:53.557Z,7.70
2018-12-21T08:55:35.980Z,7.70
2018-12-21T08:58:20.348Z,7.70
2018-12-21T09:01:02.304Z,7.80
2018-12-21T09:03:44.127Z,8.00
2018-12-21T09:06:27.145Z,8.10
2018-12-21T09:09:10.145Z,8.00
2018-12-21T09:11:52.696Z,8.00
2018-12-21T09:14:34.867Z,8.10
2018-12-21T09:17:16.684Z,8.20
2018-12-21T09:19:58.931Z,8.30
2018-12-21T09:22:40.763Z,8.40
2018-12-21T09:25:22.682Z,8.40
2018-12-21T09:28:05.993Z,8.40
2018-12-21T09:30:47.864Z,8.50
2018-12-21T09:33:30.088Z,8.40
2018-12-21T09:36:12.497Z,8.30
2018-12-21T09:38:54.491Z,8.40
2018-12-21T09:41:43.259Z,8.30
2018-12-21T09:44:25.525Z,8.30
2018-12-21T09:47:08.986Z,8.30
2018-12-21T09:49:50.987Z,8.30
2018-12-21T09:52:32.885Z,8.30
2018-12-21T09:55:14.897Z,8.30
2018-12-21T09:57:57.304Z,8.20
2018-12-21T10:00:39.457Z,8.30
2018-12-21T10:03:21.363Z,8.30
2018-12-21T10:06:03.917Z,8.10
2018-12-21T10:08:46.019Z,8.00
2018-12-21T10:11:28.656Z,8.10
2018-12-21T10:14:10.798Z,8.20
2018-12-21T10:16:52.638Z,8.30
2018-12-21T10:19:34.382Z,8.50
2018-12-21T10:22:16.643Z,8.50
2018-12-21T10:24:58.951Z,8.30
2018-12-21T10:27:41.692Z,8.20
2018-12-21T10:30:24.243Z,8.30
2018-12-21T10:33:06.373Z,8.30
2018-12-21T10:35:48.490Z,8.20
2018-12-21T10:38:30.648Z,7.90
2018-12-21T10:41:13.112Z,7.70
2018-12-21T10:43:55.046Z,7.60
2018-12-21T10:46:37.419Z,7.50
2018-12-21T10:49:19.664Z,7.40
2018-12-21T10:52:01.799Z,7.30
2018-12-21T10:54:43.725Z,7.30
2018-12-21T10:57:26.435Z,7.40
2018-12-21T11:00:13.302Z,7.50
2018-12-21T11:02:55.199Z,7.50
2018-12-21T11:05:37.439Z,7.50
2018-12-21T11:08:19.631Z,7.50
2018-12-21T11:11:02.038Z,7.60
2018-12-21T11:13:44.313Z,7.60
2018-12-21T11:16:32.429Z,7.60
2018-12-21T11:19:14.718Z,7.60
2018-12-21T11:22:02.786Z,7.60
2018-12-21T11:24:45.143Z,7.60
2018-12-21T11:27:27.736Z,7.60
2018-12-21T11:30:10.584Z,7.70
2018-12-21T11:32:53.076Z,7.70
2018-12-21T11:35:35.137Z,7.70
2018-12-21T11:38:16.959Z,7.60
2018-12-21T11:40:58.721Z,7.70
2018-12-21T11:43:42.172Z,7.80
2018-12-21T11:46:24.070Z,7.90
2018-12-21T11:49:08.753Z,8.00
2018-12-21T11:51:51.399Z,7.90
2018-12-21T11:54:33.240Z,7.90
2018-12-21T11:57:15.454Z,7.90
2018-12-21T11:59:57.983Z,7.80
2018-12-21T12:02:40.878Z,7.70
2018-12-21T12:05:23.052Z,7.60
2018-12-21T12:08:05.486Z,7.60
2018-12-21T12:10:48.213Z,7.50
2018-12-21T12:13:30.380Z,7.40
2018-12-21T12:16:12.742Z,7.40
2018-12-21T12:18:55.412Z,7.40
2018-12-21T12:21:38.101Z,7.40
2018-12-21T12:24:19.837Z,7.40
2018-12-21T12:27:02.352Z,7.40
2018-12-21T12:29:44.216Z,7.40
2018-12-21T12:32:26.165Z,7.30
2018-12-21T12:35:09.693Z,7.30
2018-12-21T12:37:51.448Z,7.20
2018-12-21T12:40:33.998Z,7.20
2018-12-21T12:43:23.682Z,7.10
2018-12-21T12:46:06.088Z,7.10
2018-12-21T12:48:48.327Z,7.00
2018-12-21T12:51:30.507Z,7.00
2018-12-21T12:54:14.012Z,7.00
2018-12-21T12:56:56.856Z,7.00
2018-12-21T12:59:39.644Z,7.00
2018-12-21T13:02:21.384Z,7.00
2018-12-21T13:05:03.870Z,6.90
2018-12-21T13:07:45.625Z,6.90
2018-12-21T13:10:27.589Z,7.00
2018-12-21T13:13:12.205Z,7.00
2018-12-21T13:15:54.332Z,6.90
2018-12-21T13:18:36.554Z,6.90
2018-12-21T13:21:19.220Z,6.90
2018-12-21T13:24:00.991Z,6.90
2018-12-21T13:26:42.919Z,6.90
2018-12-21T13:29:24.866Z,6.90
2018-12-21T13:32:06.774Z,6.90
2018-12-21T13:34:48.907Z,6.90
2018-12-21T13:37:31.411Z,6.90
2018-12-21T13:40:13.833Z,6.90
2018-12-21T13:42:55.865Z,7.00
2018-12-21T13:45:37.938Z,7.00
2018-12-21T13:48:19.784Z,7.10
2018-12-21T13:51:02.247Z,7.10
2018-12-21T13:53:44.167Z,7.20
2018-12-21T13:56:26.465Z,7.20
2018-12-21T13:59:08.456Z,7.10
2018-12-21T14:01:50.294Z,7.10
2018-12-21T14:04:32.491Z,7.10
2018-12-21T14:07:14.232Z,7.20
2018-12-21T14:09:56.875Z,7.30
2018-12-21T14:12:38.660Z,7.30
2018-12-21T14:15:20.532Z,7.30
2018-12-21T14:18:02.673Z,7.20
2018-12-21T14:20:44.457Z,7.20
2018-12-21T14:23:27.547Z,7.30
2018-12-21T14:26:09.658Z,7.30
2018-12-21T14:28:51.601Z,7.40
2018-12-21T14:31:33.829Z,7.30
2018-12-21T14:34:15.606Z,7.30
2018-12-21T14:36:57.447Z,7.30
2018-12-21T14:39:39.551Z,7.30
2018-12-21T14:42:22.180Z,7.30
2018-12-21T14:45:04.260Z,7.40
2018-12-21T14:47:46.489Z,7.20
2018-12-21T14:50:28.891Z,7.00
2018-12-21T14:53:12.281Z,6.90
2018-12-21T14:55:54.035Z,6.80
2018-12-21T14:58:36.218Z,6.80
2018-12-21T15:01:18.080Z,6.70
2018-12-21T15:04:00.902Z,6.70
2018-12-21T15:06:43.479Z,6.70
2018-12-21T15:09:29.165Z,6.60
2018-12-21T15:12:11.229Z,6.60
2018-12-21T15:14:53.462Z,6.70
2018-12-21T15:17:36.142Z,6.70
2018-12-21T15:20:19.056Z,6.70
2018-12-21T15:23:00.873Z,6.80
2018-12-21T15:25:46.217Z,6.80
2018-12-21T15:28:27.556Z,6.90
2018-12-21T15:31:09.419Z,6.90
2018-12-21T15:33:51.554Z,7.00
2018-12-21T15:36:34.657Z,7.20
2018-12-21T15:39:17.908Z,7.40
2018-12-21T15:42:00.048Z,7.70
2018-12-21T15:44:42.639Z,8.00
2018-12-21T15:47:24.954Z,8.10
2018-12-21T15:50:11.493Z,8.20
2018-12-21T15:52:54.161Z,8.20
2018-12-21T15:55:37.525Z,8.30
2018-12-21T15:58:19.110Z,8.30
2018-12-21T16:01:01.966Z,8.30
2018-12-21T16:03:43.974Z,8.30
2018-12-21T16:06:26.350Z,8.40
2018-12-21T16:09:09.695Z,8.40
2018-12-21T16:11:51.813Z,8.40
2018-12-21T16:14:34.482Z,8.50
2018-12-21T16:17:17.325Z,8.50
2018-12-21T16:19:59.183Z,8.60
2018-12-21T16:22:42.443Z,8.80
2018-12-21T16:25:25.549Z,9.00
2018-12-21T16:28:08.539Z,9.00
2018-12-21T16:30:51.508Z,9.00
2018-12-21T16:33:33.208Z,9.00
2018-12-21T16:36:15.949Z,9.00
2018-12-21T16:38:58.354Z,9.10
2018-12-21T16:41:41.211Z,9.10
2018-12-21T16:44:24.873Z,9.20
2018-12-21T16:47:06.583Z,9.30
2018-12-21T16:49:48.845Z,9.40
2018-12-21T16:52:32.707Z,9.50
2018-12-21T16:55:15.363Z,9.60
2018-12-21T16:57:57.580Z,9.70
2018-12-21T17:00:40.051Z,9.80
2018-12-21T17:03:22.664Z,9.90
2018-12-21T17:06:05.556Z,10.10
2018-12-21T17:08:47.976Z,10.10
2018-12-21T17:11:30.313Z,10.00
2018-12-21T17:14:13.034Z,10.00
2018-12-21T17:16:55.164Z,10.10
2018-12-21T17:19:37.751Z,10.20
2018-12-21T17:22:20.345Z,10.20
2018-12-21T17:25:02.969Z,10.40
2018-12-21T17:27:45.814Z,10.30
2018-12-21T17:30:28.432Z,10.40
2018-12-21T17:33:10.830Z,10.50
2018-12-21T17:35:53.216Z,10.50
2018-12-21T17:38:35.449Z,10.60
2018-12-21T17:41:17.473Z,10.80
2018-12-21T17:43:59.427Z,10.80
2018-12-21T17:46:41.187Z,10.90
2018-12-21T17:49:23.080Z,11.00
2018-12-21T17:52:05.323Z,11.10
2018-12-21T17:54:47.738Z,11.10
2018-12-21T17:57:29.787Z,11.10
2018-12-21T18:00:18.511Z,11.20
2018-12-21T18:03:00.499Z,11.30
2018-12-21T18:05:43.317Z,11.20
2018-12-21T18:08:25.119Z,11.30
2018-12-21T18:11:07.256Z,11.30
2018-12-21T18:13:49.767Z,11.40
2018-12-21T18:16:32.865Z,11.60
2018-12-21T18:19:14.996Z,11.50
2018-12-21T18:22:16.713Z,11.50
2018-12-21T18:25:03.565Z,11.50
2018-12-21T18:27:50.043Z,11.40
2018-12-21T18:30:39.502Z,11.50
2018-12-21T18:33:24.617Z,11.60
2018-12-21T18:36:07.536Z,11.60
2018-12-21T18:38:49.677Z,11.60
2018-12-21T18:41:32.552Z,11.60
2018-12-21T18:44:14.512Z,11.80
2018-12-21T18:46:56.857Z,11.90
2018-12-21T18:49:39.004Z,11.70
2018-12-21T18:52:20.796Z,11.70
2018-12-21T18:55:05.022Z,11.70
2018-12-21T18:57:49.811Z,11.60
2018-12-21T19:00:32.202Z,11.60
2018-12-21T19:03:14.406Z,11.50
2018-12-21T19:05:57.191Z,11.60
2018-12-21T19:08:39.147Z,11.50
2018-12-21T19:11:25.476Z,11.50
2018-12-21T19:14:10.061Z,11.40
2018-12-21T19:16:52.622Z,11.50
2018-12-21T19:19:35.941Z,11.50
2018-12-21T19:22:18.613Z,11.50
2018-12-21T19:25:00.564Z,11.50
2018-12-21T19:27:42.554Z,11.50
2018-12-21T19:30:25.802Z,11.40
2018-12-21T19:33:08.244Z,11.50
2018-12-21T19:35:50.110Z,11.50
2018-12-21T19:38:31.767Z,11.50
2018-12-21T19:41:15.027Z,11.50
2018-12-21T19:43:57.684Z,11.40
2018-12-21T19:46:39.802Z,11.40
2018-12-21T19:49:21.614Z,11.40
2018-12-21T19:52:04.260Z,11.30
2018-12-21T19:54:51.819Z,11.30
2018-12-21T19:57:34.180Z,11.30
2018-12-21T20:00:16.179Z,11.30
2018-12-21T20:02:59.676Z,11.40
2018-12-21T20:05:41.683Z,11.50
2018-12-21T20:08:24.157Z,11.50
2018-12-21T20:11:07.201Z,11.60
2018-12-21T20:13:49.437Z,11.60
2018-12-21T20:16:31.917Z,11.70
2018-12-21T20:19:14.630Z,11.80
2018-12-21T20:21:57.281Z,11.90
2018-12-21T20:24:40.991Z,12.00
2018-12-21T20:27:23.632Z,12.00
2018-12-21T20:30:09.737Z,12.10
2018-12-21T20:32:52.305Z,12.00
2018-12-21T20:35:34.775Z,12.00
2018-12-21T20:38:21.405Z,11.90
2018-12-21T20:41:04.251Z,11.80
2018-12-21T20:43:46.239Z,11.90
2018-12-21T20:46:28.049Z,11.90
2018-12-21T20:49:09.628Z,11.80
2018-12-21T20:51:51.217Z,11.90
2018-12-21T20:54:32.764Z,11.80
2018-12-21T20:57:21.871Z,11.80
2018-12-21T21:00:01.764Z,11.80
2018-12-21T21:02:45.345Z,11.80
2018-12-21T21:05:26.936Z,11.90
2018-12-21T21:08:09.342Z,11.90
2018-12-21T21:10:51.265Z,12.00
2018-12-21T21:13:34.103Z,11.90
2018-12-21T21:16:16.261Z,11.80
2018-12-21T21:18:58.427Z,11.70
2018-12-21T21:21:40.663Z,11.70
2018-12-21T21:24:22.967Z,11.60
2018-12-21T21:27:05.010Z,11.50
2018-12-21T21:29:47.382Z,11.40
2018-12-21T21:32:29.674Z,11.50
2018-12-21T21:35:13.190Z,11.50
2018-12-21T21:37:55.052Z,11.60
2018-12-21T21:40:39.254Z,11.60
2018-12-21T21:43:21.430Z,11.60
2018-12-21T21:46:03.432Z,11.50
2018-12-21T21:48:45.666Z,11.40
2018-12-21T21:51:27.957Z,11.30
2018-12-21T21:54:09.618Z,11.30
2018-12-21T21:56:52.402Z,11.20
2018-12-21T21:59:34.617Z,11.10
2018-12-21T22:02:16.767Z,11.00
2018-12-21T22:04:59.250Z,11.00
2018-12-21T22:07:41.769Z,11.10
2018-12-21T22:10:23.632Z,11.10
2018-12-21T22:13:05.877Z,11.30
2018-12-21T22:15:47.983Z,11.30
2018-12-21T22:18:30.894Z,11.30
2018-12-21T22:21:13.357Z,11.30
2018-12-21T22:23:55.321Z,11.30
2018-12-21T22:26:37.706Z,11.30
2018-12-21T22:29:19.997Z,11.40
2018-12-21T22:32:01.999Z,11.40
2018-12-21T22:34:45.444Z,11.40
2018-12-21T22:37:27.956Z,11.40
2018-12-21T22:40:09.947Z,11.40
2018-12-21T22:42:52.028Z,11.30
2018-12-21T22:45:35.822Z,11.30
2018-12-21T22:48:17.839Z,11.30
2018-12-21T22:51:00.043Z,11.20
2018-12-21T22:53:42.261Z,11.20
2018-12-21T22:56:24.372Z,11.10
2018-12-21T22:59:08.309Z,11.10
2018-12-21T23:01:51.107Z,11.00
2018-12-21T23:04:33.170Z,11.00
2018-12-21T23:07:15.476Z,11.00
2018-12-21T23:09:58.127Z,11.10
2018-12-21T23:12:40.472Z,11.20
2018-12-21T23:15:23.178Z,11.20
2018-12-21T23:18:05.753Z,11.20
2018-12-21T23:20:47.637Z,11.20
2018-12-21T23:23:29.942Z,11.10
2018-12-21T23:26:11.772Z,11.10
2018-12-21T23:28:53.990Z,11.10
2018-12-21T23:31:35.985Z,11.10
2018-12-21T23:34:17.819Z,11.20
2018-12-21T23:36:59.844Z,11.30
2018-12-21T23:39:42.447Z,11.30
2018-12-21T23:42:24.704Z,11.40
2018-12-21T23:45:08.742Z,11.40
2018-12-21T23:47:51.149Z,11.40
2018-12-21T23:50:33.591Z,11.40
2018-12-21T23:53:15.829Z,11.40
2018-12-21T23:55:58.621Z,11.30
2018-12-21T23:58:40.922Z,11.30
